Time;durP1;ratioP1;P1;durP2;ratioP2;P2;SDS_P1;SDS_P2;PMS_P1;PMS_P2;Temp;Humidity;BMP_temperature;BMP_pressure;BME280_temperature;BME280_humidity;BME280_pressure;Samples;Min_cycle;Max_cycle;Signal;HPM_P1;HPM_P2
2023/11/27 00:00:30;;;;;;;9.47;4.97;;;;;;;5.58;100.00;102035.13;4985691;28;20182;-69
2023/11/27 00:02:55;;;;;;;10.37;5.90;;;;;;;5.15;100.00;101964.44;4986409;28;20599;-69
2023/11/27 00:05:22;;;;;;;7.27;5.33;;;;;;;5.49;100.00;102034.13;4984945;28;20174;-69
2023/11/27 00:07:47;;;;;;;10.63;7.00;;;;;;;5.05;100.00;101952.97;4983858;28;20229;-69
2023/11/27 00:10:13;;;;;;;11.80;6.70;;;;;;;5.42;100.00;102006.41;4983629;28;20440;-69
2023/11/27 00:12:38;;;;;;;12.83;7.60;;;;;;;5.69;100.00;102003.09;4983596;28;20193;-69
2023/11/27 00:15:04;;;;;;;15.57;8.80;;;;;;;4.61;100.00;101876.13;4984651;28;20240;-69
2023/11/27 00:17:29;;;;;;;12.83;7.93;;;;;;;5.64;100.00;102003.50;4977528;28;20567;-69
2023/11/27 00:19:55;;;;;;;13.87;8.73;;;;;;;5.63;100.00;101993.81;4987512;28;20251;-69
2023/11/27 00:22:20;;;;;;;12.80;8.70;;;;;;;5.36;100.00;101977.69;4985002;28;20205;-69
2023/11/27 00:24:45;;;;;;;14.33;9.00;;;;;;;5.48;100.00;101992.56;4982914;28;20210;-69
2023/11/27 00:27:11;;;;;;;15.67;10.30;;;;;;;4.78;100.00;101861.38;4982534;28;20196;-69
2023/11/27 00:29:38;;;;;;;15.10;10.63;;;;;;;5.47;100.00;101966.94;4986063;28;20185;-69
2023/11/27 00:32:03;;;;;;;18.07;10.60;;;;;;;5.10;100.00;101894.88;4988283;28;20194;-69
2023/11/27 00:34:29;;;;;;;20.23;10.17;;;;;;;5.21;100.00;101908.06;4989947;28;20952;-69
2023/11/27 00:36:55;;;;;;;18.77;12.47;;;;;;;5.04;100.00;101909.56;4986445;28;20563;-69
2023/11/27 00:39:21;;;;;;;15.73;11.07;;;;;;;5.45;100.00;101955.56;4986255;28;20441;-69
2023/11/27 00:41:46;;;;;;;17.07;11.87;;;;;;;5.46;100.00;101954.59;4988247;28;20272;-69
2023/11/27 00:44:12;;;;;;;15.07;11.93;;;;;;;5.50;100.00;101945.38;4984727;28;20249;-69
2023/11/27 00:46:37;;;;;;;17.90;13.23;;;;;;;5.37;100.00;101952.75;4983585;28;20269;-69
2023/11/27 00:49:02;;;;;;;20.27;12.73;;;;;;;5.38;100.00;101941.13;4983917;28;20194;-69
2023/11/27 00:51:29;;;;;;;23.40;13.43;;;;;;;3.81;100.00;101691.91;4988125;28;20189;-69
2023/11/27 00:53:54;;;;;;;18.93;12.13;;;;;;;5.50;100.00;101950.69;4989693;28;20228;-69
2023/11/27 00:56:20;;;;;;;20.07;12.20;;;;;;;5.54;100.00;101940.59;5004273;28;20465;-69
2023/11/27 00:58:46;;;;;;;18.00;11.50;;;;;;;4.81;100.00;101839.00;4994602;28;20221;-69
2023/11/27 01:01:11;;;;;;;19.33;13.23;;;;;;;5.35;100.00;101933.41;4981360;28;20196;-69
2023/11/27 01:03:36;;;;;;;20.10;12.80;;;;;;;5.09;100.00;101903.81;4983029;28;20551;-69
2023/11/27 01:06:02;;;;;;;21.20;13.57;;;;;;;5.28;100.00;101921.66;4988732;28;20236;-69
2023/11/27 01:08:28;;;;;;;20.67;14.20;;;;;;;5.11;100.00;101891.25;4985843;28;20244;-69
2023/11/27 01:10:53;;;;;;;20.40;14.47;;;;;;;5.20;100.00;101903.72;4988266;28;20194;-69
2023/11/27 01:13:19;;;;;;;19.60;13.93;;;;;;;5.16;100.00;101873.06;4987061;28;20210;-69
2023/11/27 01:15:45;;;;;;;26.93;13.47;;;;;;;5.12;100.00;101853.03;4983093;28;20206;-69
2023/11/27 01:18:11;;;;;;;28.00;15.07;;;;;;;5.19;100.00;101870.97;4983453;28;20551;-69
2023/11/27 01:20:36;;;;;;;19.33;13.83;;;;;;;4.73;100.00;101800.63;4985336;28;20496;-69
2023/11/27 01:23:02;;;;;;;23.27;14.50;;;;;;;5.27;100.00;101882.75;4987745;28;20189;-69
2023/11/27 01:25:27;;;;;;;23.40;14.50;;;;;;;5.24;100.00;101885.69;4984144;28;20184;-69
2023/11/27 01:27:53;;;;;;;21.00;14.60;;;;;;;5.30;100.00;101877.16;4989250;28;20185;-69
2023/11/27 01:30:19;;;;;;;20.33;14.20;;;;;;;4.90;100.00;101852.31;4984373;28;20194;-69
2023/11/27 01:32:45;;;;;;;24.13;15.97;;;;;;;4.85;100.00;101848.38;4987542;28;20213;-69
2023/11/27 01:35:11;;;;;;;23.20;16.70;;;;;;;5.15;100.00;101912.13;4986197;28;20981;-69
2023/11/27 01:37:36;;;;;;;24.30;16.37;;;;;;;5.37;100.00;101912.84;4987481;28;20483;-69
2023/11/27 01:40:02;;;;;;;26.20;16.93;;;;;;;4.88;100.00;101866.69;4983117;28;20742;-69
2023/11/27 01:42:28;;;;;;;27.93;18.60;;;;;;;5.20;100.00;101907.22;4985470;28;20200;-69
2023/11/27 01:44:53;;;;;;;22.50;15.93;;;;;;;4.59;100.00;101790.41;4983038;28;20213;-69
2023/11/27 01:47:19;;;;;;;30.37;19.30;;;;;;;4.79;100.00;101864.88;4983788;28;20183;-69
2023/11/27 01:49:46;;;;;;;32.57;21.17;;;;;;;5.08;100.00;101913.63;4986102;28;20197;-69
2023/11/27 01:52:12;;;;;;;24.53;17.83;;;;;;;5.08;100.00;101915.44;4984664;28;20437;-69
2023/11/27 01:54:40;;;;;;;30.17;21.80;;;;;;;4.82;100.00;101877.88;4985461;28;20472;-69
2023/11/27 01:57:09;;;;;;;36.17;22.60;;;;;;;4.81;100.00;101881.53;4985796;28;20440;-69
2023/11/27 01:59:35;;;;;;;34.80;22.30;;;;;;;5.06;100.00;101867.72;4985232;28;20440;-69
2023/11/27 02:02:01;;;;;;;28.20;23.40;;;;;;;4.96;100.00;101865.03;4987138;28;20433;-69
2023/11/27 02:04:26;;;;;;;36.03;24.00;;;;;;;4.51;100.00;101769.84;4989211;28;20822;-69
2023/11/27 02:06:52;;;;;;;35.87;23.30;;;;;;;4.98;100.00;101839.16;4990088;28;20196;-69
2023/11/27 02:09:17;;;;;;;36.20;25.13;;;;;;;4.18;100.00;101701.94;4987616;28;20189;-69
2023/11/27 02:11:46;;;;;;;36.97;26.90;;;;;;;4.85;100.00;101804.00;4985429;28;20198;-69
2023/11/27 02:14:14;;;;;;;39.93;26.63;;;;;;;4.96;100.00;101829.63;4983693;28;20276;-69
2023/11/27 02:16:39;;;;;;;31.87;24.90;;;;;;;4.78;100.00;101789.59;4986666;28;22569;-69
2023/11/27 02:19:05;;;;;;;37.80;24.80;;;;;;;4.99;100.00;101814.25;4985154;28;20456;-69
2023/11/27 02:21:30;;;;;;;36.17;26.40;;;;;;;4.90;100.00;101800.94;4984638;28;20272;-69
2023/11/27 02:23:56;;;;;;;34.83;26.47;;;;;;;4.95;100.00;101791.59;4985309;28;20202;-69
2023/11/27 02:26:21;;;;;;;35.00;25.87;;;;;;;4.92;100.00;101770.59;4985465;28;20211;-69
2023/11/27 02:28:47;;;;;;;36.50;24.93;;;;;;;5.00;100.00;101783.19;4985662;28;20190;-69
2023/11/27 02:31:12;;;;;;;33.30;25.00;;;;;;;4.82;100.00;101734.34;4982907;28;20188;-69
2023/11/27 02:33:39;;;;;;;38.10;26.57;;;;;;;4.80;100.00;101746.91;4988418;28;20216;-69
2023/11/27 02:36:05;;;;;;;32.17;23.60;;;;;;;4.97;100.00;101752.38;4984965;28;20213;-69
2023/11/27 02:38:30;;;;;;;36.47;25.57;;;;;;;4.90;100.00;101747.78;4986074;28;21144;-69
2023/11/27 02:40:56;;;;;;;34.10;23.27;;;;;;;4.59;100.00;101741.72;4983542;28;20439;-69
2023/11/27 02:43:21;;;;;;;35.70;25.20;;;;;;;4.56;100.00;101710.97;4984342;28;20206;-69
2023/11/27 02:45:47;;;;;;;32.80;25.73;;;;;;;4.71;100.00;101708.72;4982787;28;20182;-69
2023/11/27 02:48:12;;;;;;;36.80;25.27;;;;;;;5.21;100.00;101757.28;4983410;28;20216;-69
2023/11/27 02:50:38;;;;;;;32.27;23.70;;;;;;;4.12;100.00;101614.88;4985828;28;20220;-69
2023/11/27 02:53:03;;;;;;;30.43;24.20;;;;;;;4.46;100.00;101673.75;4978758;28;20195;-69
2023/11/27 02:55:29;;;;;;;42.03;23.17;;;;;;;4.90;100.00;101745.13;4981343;28;20282;-69
2023/11/27 02:57:54;;;;;;;37.60;24.30;;;;;;;3.94;100.00;101612.03;4985245;28;20666;-69
2023/11/27 03:00:21;;;;;;;38.97;25.93;;;;;;;4.79;100.00;101730.13;4984409;28;20243;-69
2023/11/27 03:02:46;;;;;;;33.20;24.70;;;;;;;4.76;100.00;101730.41;4983651;28;20692;-69
2023/11/27 03:05:12;;;;;;;29.03;23.00;;;;;;;4.09;100.00;101593.91;4987363;28;20437;-69
2023/11/27 03:07:38;;;;;;;36.97;26.80;;;;;;;4.56;100.00;101660.47;4984819;28;20190;-69
2023/11/27 03:10:04;;;;;;;38.07;28.43;;;;;;;4.36;100.00;101656.13;4986300;28;20437;-69
2023/11/27 03:12:29;;;;;;;34.10;26.37;;;;;;;4.25;100.00;101623.41;4984497;28;20602;-69
2023/11/27 03:14:55;;;;;;;32.60;25.40;;;;;;;4.40;100.00;101628.31;4986446;28;20561;-69
2023/11/27 03:17:23;;;;;;;34.93;27.00;;;;;;;4.69;100.00;101694.75;4979659;28;20183;-69
2023/11/27 03:19:52;;;;;;;33.33;26.90;;;;;;;4.67;100.00;101691.41;4987535;28;20197;-69
2023/11/27 03:22:18;;;;;;;33.03;26.43;;;;;;;4.56;100.00;101668.44;4981527;28;20441;-69
2023/11/27 03:24:43;;;;;;;33.77;27.23;;;;;;;3.97;100.00;101561.34;4985340;28;20461;-69
2023/11/27 03:27:09;;;;;;;31.40;26.27;;;;;;;4.42;100.00;101645.78;4985040;28;20515;-69
2023/11/27 03:29:34;;;;;;;27.57;23.90;;;;;;;4.26;100.00;101592.38;4985409;28;20244;-69
2023/11/27 03:31:59;;;;;;;32.33;25.97;;;;;;;4.82;100.00;101671.38;4985691;28;20188;-69
2023/11/27 03:34:25;;;;;;;30.07;23.53;;;;;;;4.65;100.00;101648.16;4986041;28;20210;-69
2023/11/27 03:36:51;;;;;;;32.47;24.77;;;;;;;4.01;100.00;101545.97;4988168;28;20197;-69
2023/11/27 03:39:16;;;;;;;32.07;24.30;;;;;;;4.78;100.00;101661.19;4985684;28;20232;-69
2023/11/27 03:41:42;;;;;;;31.83;24.40;;;;;;;4.60;100.00;101632.66;4997202;28;20445;-69
2023/11/27 03:44:08;;;;;;;27.80;23.10;;;;;;;4.82;100.00;101633.34;4996589;28;20252;-69
2023/11/27 03:46:34;;;;;;;25.97;22.00;;;;;;;4.93;100.00;101627.88;4984531;28;20189;-69
2023/11/27 03:49:00;;;;;;;29.30;21.87;;;;;;;4.53;100.00;101599.66;4982412;28;20694;-69
2023/11/27 03:51:25;;;;;;;25.20;18.93;;;;;;;4.81;100.00;101613.91;4978866;28;20936;-69
2023/11/27 03:53:51;;;;;;;25.83;19.10;;;;;;;4.10;100.00;101542.47;4996561;28;20227;-71
2023/11/27 03:56:16;;;;;;;27.63;19.50;;;;;;;4.63;100.00;101624.41;4988352;28;20345;-71
2023/11/27 03:58:42;;;;;;;23.50;18.60;;;;;;;4.53;100.00;101587.19;4989908;28;20620;-71
2023/11/27 04:01:07;;;;;;;23.20;18.90;;;;;;;4.76;100.00;101656.00;4988334;28;20194;-71
2023/11/27 04:03:38;;;;;;;26.57;18.80;;;;;;;4.52;100.00;101609.44;4988513;28;20231;-71
2023/11/27 04:06:04;;;;;;;24.30;17.47;;;;;;;4.40;100.00;101615.88;4989488;28;20212;-71
2023/11/27 04:08:30;;;;;;;27.40;17.70;;;;;;;4.58;100.00;101649.72;4989049;28;20438;-71
2023/11/27 04:10:55;;;;;;;22.80;18.23;;;;;;;4.69;100.00;101657.56;4990416;28;20175;-69
2023/11/27 04:13:20;;;;;;;25.93;17.17;;;;;;;4.84;100.00;101648.16;4990465;28;20220;-69
2023/11/27 04:15:47;;;;;;;25.30;19.33;;;;;;;3.70;100.00;101492.97;4990429;28;20212;-69
2023/11/27 04:18:12;;;;;;;19.87;15.93;;;;;;;4.69;100.00;101634.47;4982732;28;20194;-69
2023/11/27 04:20:38;;;;;;;21.50;17.00;;;;;;;4.82;100.00;101633.34;4985282;28;20436;-69
2023/11/27 04:23:04;;;;;;;21.10;15.30;;;;;;;3.94;100.00;101526.28;4984306;28;20202;-69
2023/11/27 04:25:30;;;;;;;21.30;15.90;;;;;;;4.71;100.00;101636.97;4987985;28;20469;-69
2023/11/27 04:27:56;;;;;;;23.20;15.10;;;;;;;4.63;100.00;101640.34;4988600;28;21099;-69
2023/11/27 04:30:21;;;;;;;19.40;15.20;;;;;;;4.63;100.00;101623.53;4991255;28;20193;-69
2023/11/27 04:32:47;;;;;;;18.93;15.03;;;;;;;4.56;100.00;101644.53;4984324;28;20268;-69
2023/11/27 04:35:12;;;;;;;19.30;14.10;;;;;;;4.14;100.00;101564.25;4985370;28;20209;-69
2023/11/27 04:37:39;;;;;;;17.77;13.60;;;;;;;4.69;100.00;101631.81;4988798;28;20273;-70
2023/11/27 04:40:09;;;;;;;18.67;13.17;;;;;;;4.76;100.00;101632.91;4990036;28;20205;-69
2023/11/27 04:42:35;;;;;;;14.10;11.93;;;;;;;4.69;100.00;101625.66;4989454;28;20873;-69
2023/11/27 04:45:01;;;;;;;15.10;12.00;;;;;;;4.70;100.00;101617.53;4991303;28;20451;-69
2023/11/27 04:47:26;;;;;;;15.60;11.63;;;;;;;4.71;100.00;101610.41;4987811;28;20190;-69
2023/11/27 04:49:52;;;;;;;13.47;10.20;;;;;;;4.61;100.00;101604.28;4986511;28;20797;-69
2023/11/27 04:52:18;;;;;;;12.93;9.47;;;;;;;4.42;100.00;101589.16;4980860;28;20579;-69
2023/11/27 04:54:43;;;;;;;11.20;8.00;;;;;;;4.35;100.00;101572.94;5036605;23;20240;-68
2023/11/27 04:57:09;;;;;;;10.70;7.00;;;;;;;4.22;100.00;101537.84;5027006;28;20200;-68
2023/11/27 04:59:35;;;;;;;8.70;5.40;;;;;;;4.34;100.00;101565.09;5026649;28;20184;-68
2023/11/27 05:02:00;;;;;;;7.20;5.00;;;;;;;4.03;100.00;101539.53;5022869;28;20496;-68
2023/11/27 05:04:26;;;;;;;6.33;4.30;;;;;;;4.05;100.00;101537.59;5024977;28;20212;-68
2023/11/27 05:06:51;;;;;;;5.97;3.70;;;;;;;4.29;100.00;101579.66;5026636;28;20196;-68
2023/11/27 05:09:17;;;;;;;5.77;4.10;;;;;;;4.14;100.00;101564.25;5025164;28;20207;-67
2023/11/27 05:11:42;;;;;;;6.83;3.73;;;;;;;4.18;100.00;101563.88;5018139;28;20271;-68
2023/11/27 05:14:08;;;;;;;5.70;3.30;;;;;;;4.36;100.00;101566.66;5026399;28;20635;-68
2023/11/27 05:16:33;;;;;;;4.50;3.03;;;;;;;4.26;100.00;101564.00;5042763;28;20208;-68
2023/11/27 05:18:59;;;;;;;3.27;2.13;;;;;;;4.26;100.00;101550.72;5026488;28;20255;-68
2023/11/27 05:21:24;;;;;;;3.53;2.27;;;;;;;4.01;100.00;101543.31;5029855;28;20295;-68
2023/11/27 05:23:49;;;;;;;3.60;1.63;;;;;;;3.85;100.00;101527.94;5025407;28;20210;-68
2023/11/27 05:26:16;;;;;;;3.40;1.63;;;;;;;4.18;100.00;101529.34;5027874;28;20184;-68
2023/11/27 05:28:41;;;;;;;2.87;1.80;;;;;;;3.67;100.00;101465.91;5028083;28;20279;-68
2023/11/27 05:31:07;;;;;;;3.10;1.87;;;;;;;3.90;100.00;101503.63;5025222;28;21360;-68
2023/11/27 05:33:33;;;;;;;4.60;2.03;;;;;;;4.13;100.00;101509.50;5027269;28;20212;-68
2023/11/27 05:35:58;;;;;;;3.60;2.37;;;;;;;3.32;100.00;101388.53;5022425;28;20223;-68
2023/11/27 05:38:24;;;;;;;3.10;1.87;;;;;;;4.14;100.00;101495.22;5027410;28;20436;-68
2023/11/27 05:40:52;;;;;;;3.47;1.87;;;;;;;3.22;100.00;101394.81;5028257;28;20504;-68
2023/11/27 05:43:19;;;;;;;3.30;1.80;;;;;;;3.88;100.00;101502.91;5024219;28;20254;-68
2023/11/27 05:45:45;;;;;;;3.50;1.70;;;;;;;3.66;100.00;101486.28;5020918;28;20502;-68
2023/11/27 05:48:11;;;;;;;2.90;1.67;;;;;;;3.79;100.00;101492.19;5042652;28;20439;-68
2023/11/27 05:50:41;;;;;;;2.97;1.67;;;;;;;3.56;100.00;101482.81;5026071;28;20510;-68
2023/11/27 05:53:09;;;;;;;3.30;1.50;;;;;;;3.50;100.00;101464.75;5024298;28;20455;-68
2023/11/27 05:55:36;;;;;;;3.07;1.50;;;;;;;3.19;100.00;101387.97;5024241;28;20471;-68
2023/11/27 05:58:02;;;;;;;2.83;1.30;;;;;;;3.76;100.00;101479.19;5028334;28;20435;-68
2023/11/27 06:00:27;;;;;;;2.80;1.50;;;;;;;3.52;100.00;101429.16;5031134;28;20457;-68
2023/11/27 06:02:53;;;;;;;4.17;1.47;;;;;;;3.48;100.00;101419.81;5039129;28;20180;-68
2023/11/27 06:05:19;;;;;;;2.40;1.27;;;;;;;3.46;100.00;101410.31;5028965;28;21102;-67
2023/11/27 06:07:45;;;;;;;3.63;1.23;;;;;;;3.30;100.00;101376.41;5030521;28;20686;-68
2023/11/27 06:10:11;;;;;;;2.67;1.53;;;;;;;3.72;100.00;101421.22;5026161;28;20423;-68
2023/11/27 06:12:37;;;;;;;2.93;1.30;;;;;;;3.72;100.00;101419.41;5029071;28;20447;-68
2023/11/27 06:15:03;;;;;;;2.50;1.30;;;;;;;3.65;100.00;101396.25;5023202;28;20525;-68
2023/11/27 06:17:28;;;;;;;3.17;1.70;;;;;;;2.92;100.00;101294.06;5026098;28;20610;-68
2023/11/27 06:19:54;;;;;;;2.60;1.40;;;;;;;3.22;100.00;101334.66;5029622;28;20465;-68
2023/11/27 06:22:19;;;;;;;3.10;1.60;;;;;;;3.34;100.00;101372.50;5023139;28;20196;-67
2023/11/27 06:24:45;;;;;;;3.20;1.60;;;;;;;3.77;100.00;101408.38;5026722;28;21941;-68
2023/11/27 06:27:10;;;;;;;3.10;1.60;;;;;;;3.74;100.00;101388.28;5029536;28;20188;-68
2023/11/27 06:29:36;;;;;;;2.90;1.70;;;;;;;3.22;100.00;101316.13;5026442;28;20192;-67
2023/11/27 06:32:01;;;;;;;2.73;1.20;;;;;;;3.78;100.00;101356.97;5044266;28;20678;-68
2023/11/27 06:34:27;;;;;;;2.50;1.20;;;;;;;3.67;100.00;101381.00;5026898;28;20215;-68
2023/11/27 06:36:52;;;;;;;3.03;1.30;;;;;;;3.68;100.00;101386.19;5028723;28;20191;-68
2023/11/27 06:39:18;;;;;;;3.40;1.30;;;;;;;3.78;100.00;101370.25;5028984;28;20194;-68
2023/11/27 06:41:44;;;;;;;2.23;1.10;;;;;;;3.46;100.00;101351.97;5028698;28;20184;-69
2023/11/27 06:44:12;;;;;;;2.93;1.30;;;;;;;3.55;100.00;101344.00;5025471;28;20582;-68
2023/11/27 06:46:39;;;;;;;2.30;1.10;;;;;;;3.67;100.00;101357.13;5025442;28;20809;-67
2023/11/27 06:49:05;;;;;;;2.80;1.20;;;;;;;3.81;100.00;101380.56;5026341;28;20428;-68
2023/11/27 06:51:31;;;;;;;2.37;1.20;;;;;;;2.96;100.00;101246.91;5026646;28;20440;-68
2023/11/27 06:53:56;;;;;;;2.33;1.10;;;;;;;3.66;100.00;101390.78;5028799;28;20504;-68
2023/11/27 06:56:22;;;;;;;2.47;1.10;;;;;;;3.62;100.00;101384.09;5027221;28;20960;-68
2023/11/27 06:58:47;;;;;;;2.40;0.90;;;;;;;3.56;100.00;101368.75;5027645;28;20211;-68
2023/11/27 07:01:13;;;;;;;3.17;0.87;;;;;;;3.56;100.00;101356.31;5025311;28;20608;-67
2023/11/27 07:03:38;;;;;;;2.23;0.90;;;;;;;2.88;100.00;101282.03;5027369;28;20208;-68
2023/11/27 07:06:05;;;;;;;2.40;0.90;;;;;;;3.58;100.00;101342.88;5028298;28;20558;-68
2023/11/27 07:08:31;;;;;;;2.10;0.90;;;;;;;3.23;100.00;101323.06;5024148;28;20698;-68
2023/11/27 07:10:57;;;;;;;2.10;0.97;;;;;;;3.56;100.00;101361.63;5023836;28;21011;-68
2023/11/27 07:13:25;;;;;;;1.80;0.70;;;;;;;3.50;100.00;101364.84;5027710;28;20484;-68
2023/11/27 07:15:51;;;;;;;2.93;0.80;;;;;;;3.20;100.00;101347.22;5028449;28;20479;-68
2023/11/27 07:18:16;;;;;;;2.20;0.70;;;;;;;3.78;100.00;101394.13;5024830;28;20482;-68
2023/11/27 07:20:42;;;;;;;1.80;0.70;;;;;;;3.71;100.00;101385.91;5025874;28;20518;-68
2023/11/27 07:23:07;;;;;;;1.80;0.70;;;;;;;3.88;100.00;101389.66;5026402;28;20299;-68
2023/11/27 07:25:33;;;;;;;1.83;0.70;;;;;;;3.73;100.00;101386.59;5028424;28;20196;-68
2023/11/27 07:27:58;;;;;;;1.87;0.70;;;;;;;3.83;100.00;101365.34;5023914;28;20181;-68
2023/11/27 07:30:24;;;;;;;4.67;0.80;;;;;;;3.50;100.00;101306.47;5023348;28;20197;-68
2023/11/27 07:32:49;;;;;;;4.40;0.87;;;;;;;3.84;100.00;101396.22;5027574;28;20590;-68
2023/11/27 07:35:14;;;;;;;2.07;0.83;;;;;;;3.59;100.00;101357.84;5024570;28;20572;-68
2023/11/27 07:37:40;;;;;;;2.30;1.00;;;;;;;3.85;100.00;101387.28;5029140;28;20184;-68
2023/11/27 07:40:14;;;;;;;3.23;1.90;;;;;;;3.82;100.00;101385.75;5022001;28;20676;-68
2023/11/27 07:42:43;;;;;;;3.27;1.60;;;;;;;3.71;100.00;101388.56;5025928;28;20192;-68
2023/11/27 07:45:09;;;;;;;2.80;1.40;;;;;;;3.30;100.00;101353.38;5023491;28;20451;-68
2023/11/27 07:47:36;;;;;;;3.50;1.80;;;;;;;3.61;100.00;101388.53;5022764;28;20435;-68
2023/11/27 07:50:01;;;;;;;2.47;1.30;;;;;;;3.53;100.00;101387.56;5024745;28;20431;-67
2023/11/27 07:52:28;;;;;;;2.87;1.20;;;;;;;3.79;100.00;101382.53;5027615;28;20439;-68
2023/11/27 07:54:55;;;;;;;3.73;1.40;;;;;;;3.36;100.00;101312.22;5027604;28;20488;-68
2023/11/27 07:57:22;;;;;;;3.33;1.40;;;;;;;3.57;100.00;101325.31;5022701;28;20491;-68
2023/11/27 07:59:48;;;;;;;3.17;1.90;;;;;;;3.72;100.00;101369.00;5027599;28;20431;-67
2023/11/27 08:02:14;;;;;;;3.83;1.83;;;;;;;3.59;100.00;101353.38;5026501;28;20458;-67
2023/11/27 08:04:39;;;;;;;2.90;1.67;;;;;;;3.57;100.00;101327.97;5026294;28;20378;-68
2023/11/27 08:07:06;;;;;;;2.80;1.80;;;;;;;3.66;100.00;101311.19;5024303;28;20424;-68
2023/11/27 08:09:33;;;;;;;3.20;1.80;;;;;;;3.20;100.00;101243.81;5026994;28;20193;-68
2023/11/27 08:11:59;;;;;;;3.77;1.90;;;;;;;3.50;100.00;101273.78;5023875;28;20549;-68
2023/11/27 08:14:25;;;;;;;4.90;2.10;;;;;;;2.96;100.00;101175.38;5025539;28;20447;-67
2023/11/27 08:16:50;;;;;;;3.10;2.10;;;;;;;3.58;100.00;101303.09;5026533;28;20470;-67
2023/11/27 08:19:16;;;;;;;3.87;2.40;;;;;;;3.54;100.00;101294.59;5026953;28;20184;-68
2023/11/27 08:21:45;;;;;;;3.80;2.50;;;;;;;3.84;100.00;101312.13;5028655;28;20183;-68
2023/11/27 08:24:14;;;;;;;5.17;2.73;;;;;;;4.01;100.00;101317.69;5027529;28;20482;-68
2023/11/27 08:26:40;;;;;;;3.17;2.17;;;;;;;3.48;100.00;101223.56;5028560;28;20686;-68
2023/11/27 08:29:07;;;;;;;3.37;2.00;;;;;;;3.83;100.00;101283.91;5025104;28;20463;-68
2023/11/27 08:31:33;;;;;;;2.93;1.90;;;;;;;3.75;100.00;101259.91;5027343;28;20455;-68
2023/11/27 08:33:59;;;;;;;3.93;1.90;;;;;;;3.73;100.00;101291.09;5030934;28;20459;-67
2023/11/27 08:36:25;;;;;;;3.10;1.90;;;;;;;3.47;100.00;101258.16;5031066;28;20466;-68
2023/11/27 08:38:52;;;;;;;2.93;1.80;;;;;;;3.88;100.00;101306.53;5021542;28;21319;-68
2023/11/27 08:41:18;;;;;;;2.80;1.53;;;;;;;3.21;100.00;101252.63;5028313;28;20239;-68
2023/11/27 08:43:43;;;;;;;2.70;1.50;;;;;;;3.91;100.00;101299.13;5030309;28;20458;-68
2023/11/27 08:46:09;;;;;;;3.00;1.73;;;;;;;3.90;100.00;101292.13;5029440;28;20427;-68
2023/11/27 08:48:34;;;;;;;2.90;1.70;;;;;;;3.69;100.00;101291.50;5027831;28;20276;-68
2023/11/27 08:51:00;;;;;;;2.97;1.70;;;;;;;3.85;100.00;101275.84;5027026;28;20558;-68
2023/11/27 08:53:27;;;;;;;3.77;1.90;;;;;;;3.41;100.00;101254.25;5028820;28;20239;-68
2023/11/27 08:55:55;;;;;;;3.00;1.90;;;;;;;3.40;100.00;101220.78;5041905;28;20217;-68
2023/11/27 08:58:20;;;;;;;3.20;2.07;;;;;;;3.51;100.00;101233.88;5029128;28;20453;-67
2023/11/27 09:00:46;;;;;;;3.37;2.20;;;;;;;3.99;100.00;101262.09;5026894;28;21048;-68
2023/11/27 09:03:11;;;;;;;3.57;2.10;;;;;;;3.99;100.00;101263.88;5025316;28;20211;-68
2023/11/27 09:05:41;;;;;;;3.50;2.60;;;;;;;3.79;100.00;101261.31;5027576;28;20268;-68
2023/11/27 09:08:08;;;;;;;3.00;2.13;;;;;;;3.66;100.00;101238.72;5029942;28;20192;-68
2023/11/27 09:10:33;;;;;;;4.07;2.43;;;;;;;3.79;100.00;101255.16;5027971;28;20439;-68
2023/11/27 09:12:59;;;;;;;3.97;2.67;;;;;;;3.78;100.00;101237.56;5029307;28;20439;-68
2023/11/27 09:15:24;;;;;;;3.60;2.20;;;;;;;3.55;100.00;101251.16;5029210;28;20838;-68
2023/11/27 09:17:50;;;;;;;4.23;2.57;;;;;;;3.60;100.00;101264.00;5029832;28;20757;-68
2023/11/27 09:20:16;;;;;;;2.77;1.90;;;;;;;3.30;100.00;101225.28;5029242;28;20660;-68
2023/11/27 09:22:42;;;;;;;3.53;2.10;;;;;;;3.32;100.00;101205.56;5024716;28;20181;-68
2023/11/27 09:25:09;;;;;;;3.47;2.30;;;;;;;3.66;100.00;101259.94;5024567;28;21039;-68
2023/11/27 09:27:38;;;;;;;2.83;1.90;;;;;;;3.37;100.00;101229.03;5030383;28;20423;-68
2023/11/27 09:30:08;;;;;;;2.90;2.00;;;;;;;3.66;100.00;101257.31;5025946;28;20996;-68
2023/11/27 09:32:35;;;;;;;3.43;2.60;;;;;;;3.80;100.00;101257.69;5027309;28;20462;-69
2023/11/27 09:35:15;;;;;;;3.00;2.17;;;;;;;3.54;100.00;101232.75;5026968;28;20483;-68
2023/11/27 09:37:43;;;;;;;3.40;2.60;;;;;;;3.63;100.00;101256.59;5028737;28;20418;-68
2023/11/27 09:40:10;;;;;;;3.07;2.30;;;;;;;3.97;100.00;101265.88;5027588;28;20467;-68
2023/11/27 09:42:36;;;;;;;3.80;3.13;;;;;;;3.68;100.00;101263.31;5025661;28;20434;-68
2023/11/27 09:45:09;;;;;;;3.40;2.53;;;;;;;3.68;100.00;101261.50;5027400;28;20470;-68
2023/11/27 09:47:37;;;;;;;3.87;3.00;;;;;;;2.99;100.00;101148.59;5027172;28;20430;-68
2023/11/27 09:50:04;;;;;;;3.40;2.70;;;;;;;3.45;100.00;101204.44;5015838;28;20506;-68
2023/11/27 09:52:55;;;;;;;3.33;2.67;;;;;;;3.70;100.00;101243.59;5024145;28;20435;-68
2023/11/27 09:55:20;;;;;;;3.50;2.77;;;;;;;3.82;100.00;101255.72;5013226;28;20628;-68
2023/11/27 09:57:48;;;;;;;3.20;2.50;;;;;;;3.76;100.00;101251.00;5024002;28;20424;-68
2023/11/27 10:00:18;;;;;;;3.63;2.60;;;;;;;3.53;100.00;101229.28;5026088;28;20197;-68
2023/11/27 10:02:47;;;;;;;3.57;2.90;;;;;;;3.03;100.00;101160.56;5023379;28;20452;-68
2023/11/27 10:05:15;;;;;;;3.50;2.50;;;;;;;3.61;100.00;101233.84;5024935;28;20518;-67
2023/11/27 10:07:40;;;;;;;3.50;2.70;;;;;;;3.68;100.00;101231.47;5025620;28;20435;-68
2023/11/27 10:10:07;;;;;;;3.97;2.90;;;;;;;3.50;100.00;101195.09;5024153;28;20851;-68
2023/11/27 10:12:35;;;;;;;3.87;2.77;;;;;;;3.47;100.00;101182.13;5041053;28;20188;-68
2023/11/27 10:15:11;;;;;;;3.37;2.37;;;;;;;3.09;100.00;101108.81;5027298;28;20466;-68
2023/11/27 10:17:37;;;;;;;4.27;2.20;;;;;;;3.71;100.00;101216.09;5022301;28;20431;-68
2023/11/27 10:20:04;;;;;;;4.90;2.97;;;;;;;3.63;100.00;101203.53;5024686;28;20442;-68
2023/11/27 10:22:32;;;;;;;4.37;2.70;;;;;;;3.53;100.00;101215.16;5026631;28;20424;-68
2023/11/27 10:25:00;;;;;;;3.47;2.53;;;;;;;3.63;100.00;101202.72;5028291;28;20976;-68
2023/11/27 10:27:26;;;;;;;3.47;2.60;;;;;;;3.45;100.00;101178.75;5027462;28;20451;-68
2023/11/27 10:29:52;;;;;;;3.40;2.27;;;;;;;3.58;100.00;101202.31;5025967;28;20427;-68
2023/11/27 10:32:22;;;;;;;3.73;2.53;;;;;;;3.49;100.00;101217.25;5023562;28;20188;-68
2023/11/27 10:34:49;;;;;;;3.63;2.97;;;;;;;3.64;100.00;101212.34;5023586;28;20540;-68
2023/11/27 10:37:16;;;;;;;6.47;2.83;;;;;;;3.48;100.00;101183.78;5026802;28;20489;-68
2023/11/27 10:39:41;;;;;;;3.20;2.33;;;;;;;3.30;100.00;101127.19;5027837;28;20435;-68
2023/11/27 10:42:10;;;;;;;3.60;2.80;;;;;;;2.79;100.00;101089.47;5026386;28;20445;-68
2023/11/27 10:44:37;;;;;;;3.63;2.50;;;;;;;3.54;100.00;101192.97;5024067;28;20208;-68
2023/11/27 10:47:10;;;;;;;3.40;2.67;;;;;;;3.57;100.00;101193.50;5023640;28;20427;-68
2023/11/27 10:49:42;;;;;;;4.00;2.87;;;;;;;3.36;100.00;101156.59;5026789;28;20451;-68
2023/11/27 10:52:11;;;;;;;3.57;2.70;;;;;;;3.63;100.00;101184.16;5025268;28;21134;-68
2023/11/27 10:54:41;;;;;;;3.50;2.70;;;;;;;3.61;100.00;101183.44;5037876;23;20564;-69
2023/11/27 10:57:08;;;;;;;4.13;2.97;;;;;;;3.39;100.00;101174.03;5010499;28;20439;-68
2023/11/27 10:59:42;;;;;;;3.10;2.30;;;;;;;3.47;100.00;101176.81;5028103;28;20427;-68
2023/11/27 11:02:11;;;;;;;7.97;3.20;;;;;;;3.81;100.00;101194.81;5025205;28;20454;-69
2023/11/27 11:04:49;;;;;;;3.17;2.40;;;;;;;3.68;100.00;101181.91;5027959;28;20451;-72
2023/11/27 11:07:38;;;;;;;3.20;2.60;;;;;;;3.61;100.00;101186.94;5026924;28;20423;-70
2023/11/27 11:10:06;;;;;;;3.40;2.57;;;;;;;3.47;100.00;101125.56;5023818;28;21008;-70
2023/11/27 11:12:32;;;;;;;3.80;2.90;;;;;;;3.67;100.00;101161.63;5026364;28;20438;-71
2023/11/27 11:14:58;;;;;;;3.60;2.90;;;;;;;3.68;100.00;101168.63;5024576;28;20466;-71